Davison, MI

06:53 AM EST 2014 azaroa ren 24 an (GMT -0500)
Burton - wxbeacon.com | Change Station
CLOSE
Current Station
Personal Weather Stations
Location: Burton, MI
Elevation: 766 ft
Nearby Weather Stations
Active Advisory: Wind Advisory

Elev 766 ft 43.03 °N, 83.59 °W | Updated 2 minutes ago

Euria
Euria
53.1 °F
Feels Like 53.1 °F
N
4.0
Haizea Aldagarria Haizea from HHM
Gusts 13.0 mph

Gaur
High -- | Low -- °F
--% Chance of Precip.
Yesterday
High -- | Low -- °F
Precip. -- in
7:37 AM 5:03 PM
Waxing Crescent, 5% visible
Presioa 29.09 in
Ikusgaitasuna 8.0 Miliak
Clouds Goraki estalia 1300 ft
Estalia 1900 ft
Ihintzaren maila 52 °F
Afoinua 95%
Rainfall 0.38 in
Snow Depth Not available.
UV 0 out of 12
Pollen .10 out of 12
Air Quality Not available.
Flu Activity Not available.
SPECI KFNT 241128Z 22011G21KT 8SM -RA BKN013 OVC019 13/11 A2909 RMK AO2 P0002 T01280106

More Conditions Fewer Conditions

Presioa 29.09 in
Ikusgaitasuna 8.0 Miliak
Clouds Goraki estalia 1300 ft
Estalia 1900 ft
Ihintzaren maila 52 °F
Afoinua 95%
Rainfall 0.38 in
Snow Depth Not available.
UV 0 out of 12
Pollen .10 out of 12
Air Quality Not available.
Flu Activity Not available.
SPECI KFNT 241128Z 22011G21KT 8SM -RA BKN013 OVC019 13/11 A2909 RMK AO2 P0002 T01280106

More Conditions Fewer Conditions

10-Day Weather Forecast

Almanac

Astronomy

Nov. 24, 2014 Rise Set
Actual Time
Civil Twilight
Nautical Twilight
Astronomical Twilight
Moon
Length Of Visible Light
Length of Day
Tomorrow will be .
, % of the Moon is Illuminated

Today's Extremes

State Highs State Lows

Community

WunderPhotos

Upload Photos

1,773,312 photos uploaded!

WunderBlogs® & News

Nearby

Air Quality

  Air Quality AQ Index Pollutant
Not available.

Snow Depth

Station Depth Elevation

Earthquake Activity

City Distance Mag. Time & Date
Minimum magnitude displayed is 2.5.

Coastal Water Temperatures

Lekua Tenperatura

Nearby Weather Stations